createdAt,value
2024-02-29T00:00:02.408Z,97175.88
2024-02-29T00:01:04.543Z,97177.03
2024-02-29T00:02:06.303Z,97177.25
2024-02-29T00:03:10.423Z,97179.84
2024-02-29T00:04:12.330Z,97176.06
2024-02-29T00:05:14.342Z,97166.28
2024-02-29T00:06:16.120Z,97179.91
2024-02-29T00:07:17.868Z,97177.50
2024-02-29T00:08:19.690Z,97180.25
2024-02-29T00:09:21.449Z,97171.50
2024-02-29T00:10:23.718Z,97182.50
2024-02-29T00:11:25.533Z,97185.13
2024-02-29T00:12:27.320Z,97180.88
2024-02-29T00:13:29.109Z,97176.69
2024-02-29T00:14:30.996Z,97185.91
2024-02-29T00:15:32.822Z,97182.50
2024-02-29T00:16:34.700Z,97175.34
2024-02-29T00:17:36.489Z,97175.50
2024-02-29T00:18:38.361Z,97174.72
2024-02-29T00:19:40.304Z,97175.34
2024-02-29T00:20:42.989Z,97174.16
2024-02-29T00:21:45.597Z,97173.00
2024-02-29T00:22:48.008Z,97173.00
2024-02-29T00:23:49.753Z,97166.81
2024-02-29T00:24:51.659Z,97169.59
2024-02-29T00:25:53.450Z,97166.13
2024-02-29T00:26:55.205Z,97170.50
2024-02-29T00:27:58.051Z,97172.28
2024-02-29T00:28:59.929Z,97171.09
2024-02-29T00:30:01.756Z,97167.53
2024-02-29T00:31:05.153Z,97169.13
2024-02-29T00:32:09.427Z,97167.19
2024-02-29T00:33:11.206Z,97163.59
2024-02-29T00:34:13.810Z,97170.41
2024-02-29T00:35:15.661Z,97166.19
2024-02-29T00:36:17.508Z,97164.38
2024-02-29T00:37:19.290Z,97162.78
2024-02-29T00:38:21.067Z,97164.59
2024-02-29T00:39:23.004Z,97167.19
2024-02-29T00:40:24.940Z,97168.78
2024-02-29T00:41:27.384Z,97162.59
2024-02-29T00:42:29.218Z,97165.00
2024-02-29T00:43:31.079Z,97174.25
2024-02-29T00:44:32.891Z,97167.19
2024-02-29T00:45:34.774Z,97171.38
2024-02-29T00:46:39.489Z,97172.00
2024-02-29T00:47:41.264Z,97168.22
2024-02-29T00:48:43.047Z,97164.84
2024-02-29T00:49:44.887Z,97174.25
2024-02-29T00:50:46.722Z,97166.19
2024-02-29T00:51:48.658Z,97160.00
2024-02-29T00:52:50.507Z,97165.00
2024-02-29T00:53:52.380Z,97163.41
2024-02-29T00:54:54.493Z,97166.19
2024-02-29T00:55:56.499Z,97159.19
2024-02-29T00:56:58.349Z,97154.59
2024-02-29T00:58:00.191Z,97158.03
2024-02-29T00:59:01.943Z,97156.22
2024-02-29T01:00:03.949Z,97156.84
2024-02-29T01:01:05.912Z,97159.44
2024-02-29T01:02:07.869Z,97154.06
2024-02-29T01:03:10.127Z,97151.47
2024-02-29T01:04:11.967Z,97151.28
2024-02-29T01:05:13.789Z,97153.69
2024-02-29T01:06:17.722Z,97152.91
2024-02-29T01:07:20.554Z,97152.28
2024-02-29T01:08:22.324Z,97149.06
2024-02-29T01:09:28.654Z,97148.25
2024-02-29T01:10:30.645Z,97153.19
2024-02-29T01:11:33.626Z,97151.75
2024-02-29T01:12:40.872Z,97153.19
2024-02-29T01:13:42.930Z,97150.41
2024-02-29T01:14:44.857Z,97145.19
2024-02-29T01:15:47.586Z,97156.41
2024-02-29T01:16:49.971Z,97146.81
2024-02-29T01:17:52.395Z,97153.44
2024-02-29T01:18:54.206Z,97149.06
2024-02-29T01:19:56.060Z,97148.03
2024-02-29T01:20:57.817Z,97146.28
2024-02-29T01:21:59.649Z,97141.69
2024-02-29T01:23:01.660Z,97142.50
2024-02-29T01:24:03.405Z,97140.69
2024-02-29T01:25:05.720Z,97143.91
2024-02-29T01:26:08.393Z,97139.34
2024-02-29T01:27:10.081Z,97136.72
2024-02-29T01:28:11.967Z,97138.34
2024-02-29T01:29:13.849Z,97129.72
2024-02-29T01:30:15.712Z,97125.69
2024-02-29T01:31:17.463Z,97128.69
2024-02-29T01:32:26.324Z,97129.66
2024-02-29T01:33:30.086Z,97125.25
2024-02-29T01:34:32.207Z,97126.72
2024-02-29T01:35:34.045Z,97120.50
2024-02-29T01:36:35.921Z,97122.47
2024-02-29T01:37:37.689Z,97118.63
2024-02-29T01:38:39.441Z,97120.56
2024-02-29T01:39:43.069Z,97117.50
2024-02-29T01:40:47.897Z,97114.91
2024-02-29T01:41:50.209Z,97116.69
2024-02-29T01:42:52.000Z,97114.28
2024-02-29T01:43:55.090Z,97112.41
2024-02-29T01:44:57.603Z,97115.34
2024-02-29T01:46:12.069Z,97114.53
2024-02-29T01:47:14.641Z,97110.75
2024-02-29T01:48:16.557Z,97105.41
2024-02-29T01:49:18.780Z,97103.44
2024-02-29T01:50:20.830Z,97109.25
2024-02-29T01:51:23.029Z,97109.88
2024-02-29T01:52:26.594Z,97104.69
2024-02-29T01:53:29.114Z,97104.69
2024-02-29T01:54:31.401Z,97104.69
2024-02-29T01:55:33.260Z,97106.47
2024-02-29T01:56:34.995Z,97103.09
2024-02-29T01:57:37.111Z,97097.88
2024-02-29T01:58:40.179Z,97106.47
2024-02-29T01:59:42.885Z,97099.66
2024-02-29T02:00:45.287Z,97098.84
2024-02-29T02:01:47.727Z,97104.84
2024-02-29T02:02:49.819Z,97100.66
2024-02-29T02:03:51.689Z,97096.63
2024-02-29T02:04:53.629Z,97093.03
2024-02-29T02:05:55.360Z,97097.44
2024-02-29T02:06:58.901Z,97093.03
2024-02-29T02:08:00.665Z,97095.47
2024-02-29T02:09:03.150Z,97091.69
2024-02-29T02:10:07.501Z,97090.50
2024-02-29T02:11:09.594Z,97083.06
2024-02-29T02:12:14.253Z,97092.69
2024-02-29T02:13:16.098Z,97090.25
2024-02-29T02:14:18.054Z,97081.84
2024-02-29T02:15:19.861Z,97082.81
2024-02-29T02:16:21.781Z,97081.34
2024-02-29T02:17:23.607Z,97077.69
2024-02-29T02:18:25.339Z,97071.69
2024-02-29T02:19:27.147Z,97081.28
2024-02-29T02:20:28.912Z,97072.50
2024-02-29T02:21:31.601Z,97073.72
2024-02-29T02:22:34.081Z,97064.78
2024-02-29T02:23:35.827Z,97062.19
2024-02-29T02:24:37.846Z,97059.59
2024-02-29T02:25:39.634Z,97069.00
2024-02-29T02:26:41.404Z,97063.63
2024-02-29T02:27:43.314Z,97059.06
2024-02-29T02:28:45.054Z,97062.44
2024-02-29T02:29:46.755Z,97057.25
2024-02-29T02:30:48.574Z,97060.47
2024-02-29T02:31:50.303Z,97071.06
2024-02-29T02:32:52.128Z,97066.13
2024-02-29T02:33:53.810Z,97059.25
2024-02-29T02:34:55.544Z,97064.00
2024-02-29T02:35:57.390Z,97061.56
2024-02-29T02:36:59.100Z,97057.22
2024-02-29T02:38:04.417Z,97058.00
2024-02-29T02:39:06.213Z,97053.59
2024-02-29T02:40:08.370Z,97062.03
2024-02-29T02:41:10.283Z,97057.44
2024-02-29T02:42:12.022Z,97054.50
2024-02-29T02:43:13.921Z,97057.28
2024-02-29T02:44:15.684Z,97057.63
2024-02-29T02:45:17.480Z,97060.03
2024-02-29T02:46:19.501Z,97059.25
2024-02-29T02:47:21.247Z,97055.84
2024-02-29T02:48:22.989Z,97061.22
2024-02-29T02:49:24.710Z,97061.41
2024-02-29T02:50:27.125Z,97053.59
2024-02-29T02:51:29.066Z,97048.41
2024-02-29T02:52:31.036Z,97053.44
2024-02-29T02:53:32.843Z,97052.63
2024-02-29T02:54:35.128Z,97051.44
2024-02-29T02:55:37.075Z,97049.03
2024-02-29T02:56:38.877Z,97053.78
2024-02-29T02:57:40.696Z,97045.28
2024-02-29T02:58:42.527Z,97050.03
2024-02-29T02:59:44.225Z,97055.88
2024-02-29T03:00:46.148Z,97042.53
2024-02-29T03:01:50.748Z,97042.53
2024-02-29T03:02:53.051Z,97045.47
2024-02-29T03:03:54.904Z,97040.28
2024-02-29T03:04:56.982Z,97047.28
2024-02-29T03:05:58.832Z,97043.31
2024-02-29T03:07:00.698Z,97041.16
2024-02-29T03:08:04.801Z,97044.38
2024-02-29T03:09:09.188Z,97039.53
2024-02-29T03:10:11.219Z,97035.53
2024-02-29T03:11:13.188Z,97036.44
2024-02-29T03:12:15.651Z,97037.53
2024-02-29T03:13:17.474Z,97034.72
2024-02-29T03:14:19.378Z,97031.00
2024-02-29T03:15:21.930Z,97030.59
2024-02-29T03:16:24.956Z,97030.59
2024-02-29T03:17:27.719Z,97028.81
2024-02-29T03:18:29.668Z,97030.25
2024-02-29T03:19:31.547Z,97029.06
2024-02-29T03:20:33.299Z,97026.94
2024-02-29T03:21:35.182Z,97024.94
2024-02-29T03:22:36.938Z,97021.97
2024-02-29T03:23:38.718Z,97021.97
2024-02-29T03:24:43.466Z,97016.78
2024-02-29T03:25:45.363Z,97030.78
2024-02-29T03:26:48.276Z,97019.75
2024-02-29T03:27:52.135Z,97016.25
2024-02-29T03:28:54.034Z,97021.75
2024-02-29T03:29:55.798Z,97024.09
2024-02-29T03:30:58.324Z,97026.41
2024-02-29T03:32:00.149Z,97019.81
2024-02-29T03:33:01.962Z,97010.84
2024-02-29T03:34:04.170Z,97014.06
2024-02-29T03:35:07.258Z,97015.50
2024-02-29T03:36:09.746Z,97011.91
2024-02-29T03:37:11.767Z,97008.13
2024-02-29T03:38:13.630Z,97003.38
2024-02-29T03:39:15.925Z,97004.00
2024-02-29T03:40:17.922Z,97007.22
2024-02-29T03:41:19.781Z,97006.41
2024-02-29T03:42:21.530Z,97007.22
2024-02-29T03:43:23.262Z,97004.78
2024-02-29T03:44:25.179Z,97007.22
2024-02-29T03:45:27.038Z,97005.63
2024-02-29T03:46:29.466Z,97003.03
2024-02-29T03:47:31.236Z,97010.44
2024-02-29T03:48:33.520Z,97007.03
2024-02-29T03:49:35.427Z,97004.28
2024-02-29T03:50:37.236Z,97007.50
2024-02-29T03:51:39.849Z,97006.50
2024-02-29T03:52:41.997Z,97001.91
2024-02-29T03:53:44.130Z,97004.34
2024-02-29T03:54:46.801Z,97001.56
2024-02-29T03:55:49.604Z,97001.16
2024-02-29T03:56:51.382Z,97007.81
2024-02-29T03:57:53.335Z,97003.41
2024-02-29T03:58:55.078Z,97004.03
2024-02-29T03:59:56.793Z,96999.63
2024-02-29T04:00:58.923Z,97004.47
2024-02-29T04:02:01.694Z,97006.88
2024-02-29T04:03:03.647Z,97005.91
2024-02-29T04:04:05.583Z,97007.50
2024-02-29T04:05:08.507Z,97002.28
2024-02-29T04:06:10.338Z,97003.91
2024-02-29T04:07:12.237Z,96999.34
2024-02-29T04:08:14.041Z,96989.75
2024-02-29T04:09:16.622Z,96993.97
2024-02-29T04:10:18.505Z,96991.38
2024-02-29T04:11:20.484Z,96994.13
2024-02-29T04:12:22.281Z,96991.53
2024-02-29T04:13:24.824Z,96992.63
2024-02-29T04:14:26.610Z,96993.56
2024-02-29T04:15:29.049Z,96989.53
2024-02-29T04:16:31.542Z,96990.72
2024-02-29T04:17:33.894Z,96987.94
2024-02-29T04:18:35.841Z,96983.91
2024-02-29T04:19:39.386Z,96986.25
2024-02-29T04:20:41.186Z,96990.84
2024-02-29T04:21:47.211Z,96988.06
2024-02-29T04:22:51.988Z,96987.66
2024-02-29T04:23:53.661Z,96991.50
2024-02-29T04:24:55.402Z,96989.53
2024-02-29T04:25:57.334Z,96991.91
2024-02-29T04:26:59.241Z,96983.38
2024-02-29T04:28:01.156Z,96989.88
2024-02-29T04:29:03.435Z,96990.88
2024-02-29T04:30:07.115Z,96989.69
2024-02-29T04:31:10.287Z,96985.75
2024-02-29T04:32:12.161Z,96987.78
2024-02-29T04:33:13.942Z,96987.44
2024-02-29T04:34:15.913Z,96979.09
2024-02-29T04:35:18.112Z,96979.53
2024-02-29T04:36:19.924Z,96986.13
2024-02-29T04:37:21.742Z,96978.78
2024-02-29T04:38:24.013Z,96976.00
2024-02-29T04:39:25.896Z,96971.59
2024-02-29T04:40:30.840Z,96965.59
2024-02-29T04:41:32.677Z,96967.78
2024-02-29T04:42:34.785Z,96965.16
2024-02-29T04:43:36.707Z,96967.56
2024-02-29T04:44:39.122Z,96962.00
2024-02-29T04:45:40.976Z,96967.22
2024-02-29T04:46:42.990Z,96964.97
2024-02-29T04:47:45.154Z,96957.56
2024-02-29T04:48:47.086Z,96960.16
2024-02-29T04:49:48.965Z,96967.94
2024-02-29T04:50:50.751Z,96959.16
2024-02-29T04:51:53.500Z,96958.78
2024-02-29T04:52:55.377Z,96957.59
2024-02-29T04:53:57.296Z,96954.03
2024-02-29T04:54:59.105Z,96961.66
2024-02-29T04:56:01.922Z,96954.81
2024-02-29T04:57:03.703Z,96963.25
2024-02-29T04:58:06.117Z,96960.03
2024-02-29T04:59:08.811Z,96960.81
2024-02-29T05:00:11.721Z,96959.41
2024-02-29T05:01:14.779Z,96959.22
2024-02-29T05:02:17.516Z,96959.41
2024-02-29T05:03:19.345Z,96957.59
2024-02-29T05:04:21.150Z,96959.22
2024-02-29T05:05:22.969Z,96954.81
2024-02-29T05:06:24.769Z,96958.84
2024-02-29T05:07:26.506Z,96960.66
2024-02-29T05:08:28.372Z,96957.25
2024-02-29T05:09:30.093Z,96958.78
2024-02-29T05:10:31.992Z,96957.09
2024-02-29T05:11:36.187Z,96954.28
2024-02-29T05:12:39.356Z,96958.66
2024-02-29T05:13:41.116Z,96964.66
2024-02-29T05:14:42.849Z,96962.69
2024-02-29T05:15:44.832Z,96960.72
2024-02-29T05:16:46.721Z,96958.53
2024-02-29T05:17:49.500Z,96957.38
2024-02-29T05:18:53.086Z,96956.31
2024-02-29T05:19:55.749Z,96948.19
2024-02-29T05:20:57.516Z,96945.34
2024-02-29T05:21:59.378Z,96945.72
2024-02-29T05:23:01.115Z,96944.13
2024-02-29T05:24:03.007Z,96947.69
2024-02-29T05:25:05.003Z,96950.00
2024-02-29T05:26:06.897Z,96937.41
2024-02-29T05:27:08.939Z,96940.81
2024-02-29T05:28:10.859Z,96942.44
2024-02-29T05:29:12.701Z,96946.28
2024-02-29T05:30:16.033Z,96948.75
2024-02-29T05:31:17.848Z,96948.47
2024-02-29T05:32:19.746Z,96948.22
2024-02-29T05:33:21.646Z,96947.66
2024-02-29T05:34:25.451Z,96946.59
2024-02-29T05:35:27.629Z,96947.94
2024-02-29T05:36:29.581Z,96939.19
2024-02-29T05:37:32.182Z,96939.59
2024-02-29T05:38:34.092Z,96941.69
2024-02-29T05:39:36.462Z,96929.78
2024-02-29T05:40:38.453Z,96933.41
2024-02-29T05:41:40.685Z,96935.03
2024-02-29T05:42:42.458Z,96933.22
2024-02-29T05:43:45.092Z,96929.47
2024-02-29T05:44:47.534Z,96923.47
2024-02-29T05:45:49.279Z,96923.13
2024-02-29T05:46:51.841Z,96923.91
2024-02-29T05:47:53.753Z,96923.91
2024-02-29T05:48:55.653Z,96925.25
2024-02-29T05:49:57.573Z,96921.88
2024-02-29T05:50:59.410Z,96921.03
2024-02-29T05:52:01.414Z,96913.47
2024-02-29T05:53:03.231Z,96920.81
2024-02-29T05:54:05.053Z,96916.78
2024-02-29T05:55:07.773Z,96916.97
2024-02-29T05:56:09.593Z,96908.16
2024-02-29T05:57:11.459Z,96917.59
2024-02-29T05:58:13.617Z,96915.78
2024-02-29T05:59:15.843Z,96916.59
2024-02-29T06:00:19.024Z,96915.78
2024-02-29T06:01:21.039Z,96908.56
2024-02-29T06:02:22.960Z,96908.91
2024-02-29T06:03:24.850Z,96904.72
2024-02-29T06:04:26.878Z,96905.34
2024-02-29T06:05:29.744Z,96911.50
2024-02-29T06:06:31.437Z,96914.53
2024-02-29T06:07:33.291Z,96912.41
2024-02-29T06:08:35.080Z,96914.59
2024-02-29T06:09:37.335Z,96914.25
2024-02-29T06:10:39.484Z,96918.09
2024-02-29T06:11:41.471Z,96917.72
2024-02-29T06:12:43.287Z,96923.53
2024-02-29T06:13:45.364Z,96912.34
2024-02-29T06:14:48.894Z,96913.97
2024-02-29T06:15:51.556Z,96924.16
2024-02-29T06:16:53.646Z,96915.56
2024-02-29T06:17:57.053Z,96931.53
2024-02-29T06:18:58.964Z,96919.06
2024-02-29T06:20:00.801Z,96916.69
2024-02-29T06:21:04.401Z,96920.25
2024-02-29T06:22:09.620Z,96922.78
2024-02-29T06:23:11.377Z,96922.94
2024-02-29T06:24:19.851Z,96930.56
2024-02-29T06:25:22.202Z,96919.19
2024-02-29T06:26:25.589Z,96923.22
2024-02-29T06:27:28.281Z,96924.66
2024-02-29T06:28:30.095Z,96917.47
2024-02-29T06:29:31.968Z,96921.66
2024-02-29T06:30:33.987Z,96920.69
2024-02-29T06:31:35.910Z,96914.16
2024-02-29T06:32:37.763Z,96919.34
2024-02-29T06:33:39.651Z,96919.50
2024-02-29T06:34:42.284Z,96917.38
2024-02-29T06:35:44.150Z,96917.97
2024-02-29T06:36:46.318Z,96921.19
2024-02-29T06:37:48.411Z,96922.78
2024-02-29T06:38:50.398Z,96918.59
2024-02-29T06:39:52.267Z,96917.97
2024-02-29T06:40:54.057Z,96918.78
2024-02-29T06:41:55.862Z,96920.75
2024-02-29T06:42:57.704Z,96924.88
2024-02-29T06:43:59.440Z,96919.06
2024-02-29T06:45:01.210Z,96922.84
2024-02-29T06:46:06.703Z,96914.81
2024-02-29T06:47:08.833Z,96914.59
2024-02-29T06:48:10.777Z,96917.19
2024-02-29T06:49:13.078Z,96923.47
2024-02-29T06:50:15.010Z,96912.72
2024-02-29T06:51:17.053Z,96916.47
2024-02-29T06:52:18.827Z,96917.19
2024-02-29T06:53:20.530Z,96907.81
2024-02-29T06:54:22.393Z,96910.25
2024-02-29T06:55:24.241Z,96913.88
2024-02-29T06:56:26.028Z,96910.31
2024-02-29T06:57:27.894Z,96910.53
2024-02-29T06:58:29.702Z,96909.56
2024-02-29T06:59:31.556Z,96915.56
2024-02-29T07:00:33.976Z,96909.19
2024-02-29T07:01:36.717Z,96909.00
2024-02-29T07:02:38.697Z,96911.16
2024-02-29T07:03:40.965Z,96909.50
2024-02-29T07:04:44.203Z,96907.44
2024-02-29T07:05:46.894Z,96900.28
2024-02-29T07:06:48.704Z,96905.13
2024-02-29T07:07:54.230Z,96899.91
2024-02-29T07:08:56.120Z,96896.31
2024-02-29T07:09:58.072Z,96894.97
2024-02-29T07:11:02.394Z,96899.53
2024-02-29T07:12:04.990Z,96896.94
2024-02-29T07:13:06.802Z,96896.41
2024-02-29T07:14:08.579Z,96896.81
2024-02-29T07:15:11.205Z,96898.06
2024-02-29T07:16:13.130Z,96887.66
2024-02-29T07:17:14.866Z,96889.28
2024-02-29T07:18:16.817Z,96889.28
2024-02-29T07:19:18.672Z,96891.84
2024-02-29T07:20:20.682Z,96889.97
2024-02-29T07:21:22.492Z,96889.16
2024-02-29T07:22:25.083Z,96892.38
2024-02-29T07:23:26.936Z,96888.63
2024-02-29T07:24:29.022Z,96884.22
2024-02-29T07:25:30.869Z,96883.03
2024-02-29T07:26:33.093Z,96888.22
2024-02-29T07:27:37.542Z,96882.41
2024-02-29T07:28:39.367Z,96880.81
2024-02-29T07:29:41.108Z,96885.00
2024-02-29T07:30:42.905Z,96885.19
2024-02-29T07:31:44.737Z,96874.00
2024-02-29T07:32:46.823Z,96881.63
2024-02-29T07:33:48.742Z,96878.03
2024-02-29T07:34:50.493Z,96874.44
2024-02-29T07:35:52.575Z,96866.88
2024-02-29T07:36:54.481Z,96871.38
2024-02-29T07:37:56.261Z,96875.22
2024-02-29T07:38:58.028Z,96866.78
2024-02-29T07:39:59.898Z,96869.75
2024-02-29T07:41:01.680Z,96860.97
2024-02-29T07:42:04.433Z,96871.78
2024-02-29T07:43:06.999Z,96859.63
2024-02-29T07:44:08.795Z,96854.66
2024-02-29T07:45:10.790Z,96862.72
2024-02-29T07:46:12.545Z,96854.66
2024-02-29T07:47:14.652Z,96854.91
2024-02-29T07:48:16.576Z,96849.31
2024-02-29T07:49:19.464Z,96859.34
2024-02-29T07:50:22.137Z,96857.38
2024-02-29T07:51:23.978Z,96853.94
2024-02-29T07:52:25.780Z,96849.94
2024-02-29T07:53:28.129Z,96849.31
2024-02-29T07:54:29.880Z,96856.38
2024-02-29T07:55:31.765Z,96850.81
2024-02-29T07:56:33.499Z,96850.00
2024-02-29T07:57:36.412Z,96844.16
2024-02-29T07:58:38.334Z,96845.63
2024-02-29T07:59:40.079Z,96844.25
2024-02-29T08:00:41.974Z,96850.06
2024-02-29T08:01:43.923Z,96846.28
2024-02-29T08:02:47.750Z,96838.13
2024-02-29T08:03:49.905Z,96841.88
2024-02-29T08:04:51.648Z,96842.44
2024-02-29T08:05:53.446Z,96839.84
2024-02-29T08:06:55.573Z,96840.28
2024-02-29T08:07:58.172Z,96840.50
2024-02-29T08:09:00.568Z,96843.31
2024-02-29T08:10:02.949Z,96841.50
2024-02-29T08:11:06.517Z,96835.69
2024-02-29T08:12:08.327Z,96841.13
2024-02-29T08:13:10.221Z,96835.13
2024-02-29T08:14:12.086Z,96837.72
2024-02-29T08:15:14.774Z,96835.69
2024-02-29T08:16:16.704Z,96836.44
2024-02-29T08:17:18.481Z,96829.69
2024-02-29T08:18:20.339Z,96832.34
2024-02-29T08:19:22.842Z,96830.09
2024-02-29T08:20:26.816Z,96829.13
2024-02-29T08:21:28.658Z,96830.53
2024-02-29T08:22:30.606Z,96831.34
2024-02-29T08:23:32.535Z,96833.53
2024-02-29T08:24:34.469Z,96833.09
2024-02-29T08:25:36.305Z,96832.69
2024-02-29T08:26:38.319Z,96834.50
2024-02-29T08:27:40.052Z,96834.94
2024-02-29T08:28:43.849Z,96826.13
2024-02-29T08:29:45.657Z,96832.16
2024-02-29T08:30:47.557Z,96827.94
2024-02-29T08:31:49.550Z,96823.53
2024-02-29T08:32:51.461Z,96827.03
2024-02-29T08:33:53.305Z,96828.25
2024-02-29T08:34:58.247Z,96826.09
2024-02-29T08:36:00.506Z,96827.13
2024-02-29T08:37:03.821Z,96817.38
2024-02-29T08:38:05.668Z,96819.41
2024-02-29T08:39:07.439Z,96811.25
2024-02-29T08:40:09.429Z,96814.13
2024-02-29T08:41:11.238Z,96812.53
2024-02-29T08:42:13.007Z,96809.53
2024-02-29T08:43:15.025Z,96804.56
2024-02-29T08:44:19.493Z,96813.59
2024-02-29T08:45:23.044Z,96811.19
2024-02-29T08:46:24.967Z,96807.00
2024-02-29T08:47:26.898Z,96805.44
2024-02-29T08:48:28.727Z,96813.06
2024-02-29T08:49:30.654Z,96813.91
2024-02-29T08:50:32.515Z,96811.47
2024-02-29T08:51:34.476Z,96805.84
2024-02-29T08:52:36.251Z,96810.69
2024-02-29T08:53:38.008Z,96802.28
2024-02-29T08:54:39.725Z,96805.06
2024-02-29T08:55:41.575Z,96799.63
2024-02-29T08:56:43.454Z,96800.66
2024-02-29T08:57:45.744Z,96798.88
2024-02-29T08:58:47.590Z,96791.66
2024-02-29T08:59:49.305Z,96792.69
2024-02-29T09:00:51.213Z,96784.28
2024-02-29T09:01:54.082Z,96779.44
2024-02-29T09:02:56.107Z,96790.88
2024-02-29T09:03:58.257Z,96784.28
2024-02-29T09:05:00.123Z,96782.88
2024-02-29T09:06:01.987Z,96783.88
2024-02-29T09:07:04.493Z,96779.06
2024-02-29T09:08:06.349Z,96782.69
2024-02-29T09:09:08.133Z,96780.50
2024-02-29T09:10:10.957Z,96778.88
2024-02-29T09:11:12.846Z,96779.25
2024-02-29T09:12:16.694Z,96773.63
2024-02-29T09:13:29.737Z,96782.31
2024-02-29T09:14:39.900Z,96777.47
2024-02-29T09:15:43.260Z,96770.41
2024-02-29T09:16:45.069Z,96770.00
2024-02-29T09:17:46.804Z,96765.78
2024-02-29T09:18:49.355Z,96758.50
2024-02-29T09:19:51.188Z,96766.09
2024-02-29T09:20:53.060Z,96760.28
2024-02-29T09:21:54.912Z,96766.09
2024-02-29T09:22:57.216Z,96766.94
2024-02-29T09:23:59.118Z,96756.44
2024-02-29T09:25:01.116Z,96758.03
2024-02-29T09:26:04.192Z,96759.19
2024-02-29T09:27:06.202Z,96759.97
2024-02-29T09:28:08.081Z,96755.50
2024-02-29T09:29:09.906Z,96759.50
2024-02-29T09:30:12.224Z,96754.09
2024-02-29T09:31:14.157Z,96761.75
2024-02-29T09:32:16.105Z,96758.09
2024-02-29T09:33:18.358Z,96750.59
2024-02-29T09:34:20.367Z,96747.13
2024-02-29T09:35:22.919Z,96748.69
2024-02-29T09:36:26.102Z,96741.81
2024-02-29T09:37:27.918Z,96737.56
2024-02-29T09:38:29.795Z,96733.50
2024-02-29T09:39:31.641Z,96734.09
2024-02-29T09:40:42.006Z,96725.97
2024-02-29T09:42:08.465Z,96732.13
2024-02-29T09:43:12.766Z,96730.28
2024-02-29T09:44:15.236Z,96728.84
2024-02-29T09:45:19.466Z,96730.81
2024-02-29T09:46:22.847Z,96723.72
2024-02-29T09:47:25.436Z,96724.81
2024-02-29T09:48:27.340Z,96725.75
2024-02-29T09:49:29.891Z,96723.34
2024-02-29T09:50:31.637Z,96718.78
2024-02-29T09:51:33.772Z,96715.28
2024-02-29T09:52:36.331Z,96714.41
2024-02-29T09:53:39.479Z,96711.94
2024-02-29T09:54:42.002Z,96711.88
2024-02-29T09:55:44.463Z,96709.97
2024-02-29T09:56:49.348Z,96703.06
2024-02-29T09:57:51.103Z,96708.00
2024-02-29T09:58:52.910Z,96699.84
2024-02-29T09:59:55.154Z,96706.41
2024-02-29T10:00:57.528Z,96692.78
2024-02-29T10:02:01.244Z,96699.28
2024-02-29T10:03:04.732Z,96693.16
2024-02-29T10:04:08.421Z,96689.91
2024-02-29T10:05:13.417Z,96696.41
2024-02-29T10:06:15.442Z,96695.41
2024-02-29T10:07:17.260Z,96687.06
2024-02-29T10:08:19.570Z,96688.59
2024-02-29T10:09:22.449Z,96687.03
2024-02-29T10:10:24.587Z,96685.69
2024-02-29T10:11:29.926Z,96682.72
2024-02-29T10:12:32.160Z,96674.75
2024-02-29T10:13:38.348Z,96681.47
2024-02-29T10:14:40.145Z,96669.63
2024-02-29T10:15:42.657Z,96672.00
2024-02-29T10:16:44.432Z,96673.41
2024-02-29T10:17:46.771Z,96678.97
2024-02-29T10:18:49.704Z,96668.59
2024-02-29T10:19:53.655Z,96665.28
2024-02-29T10:20:55.485Z,96669.03
2024-02-29T10:21:57.824Z,96660.81
2024-02-29T10:23:00.532Z,96657.25
2024-02-29T10:24:02.419Z,96655.31
2024-02-29T10:25:04.334Z,96652.53
2024-02-29T10:26:06.309Z,96653.91
2024-02-29T10:27:08.153Z,96651.75
2024-02-29T10:28:13.870Z,96651.47
2024-02-29T10:29:18.383Z,96645.94
2024-02-29T10:30:20.413Z,96645.16
2024-02-29T10:31:22.386Z,96635.31
2024-02-29T10:32:24.260Z,96635.94
2024-02-29T10:33:27.165Z,96637.78
2024-02-29T10:34:29.158Z,96636.34
2024-02-29T10:35:31.869Z,96626.81
2024-02-29T10:36:34.168Z,96637.63
2024-02-29T10:37:35.950Z,96636.44
2024-02-29T10:38:38.740Z,96626.56
2024-02-29T10:39:41.943Z,96627.19
2024-02-29T10:40:44.424Z,96625.09
2024-02-29T10:41:50.573Z,96623.03
2024-02-29T10:42:53.372Z,96620.03
2024-02-29T10:43:56.097Z,96622.97
2024-02-29T10:44:58.934Z,96620.09
2024-02-29T10:46:01.133Z,96618.09
2024-02-29T10:47:06.805Z,96617.38
2024-02-29T10:48:16.245Z,96616.28
2024-02-29T10:49:36.449Z,96613.94
2024-02-29T10:50:57.063Z,96611.19
2024-02-29T10:52:15.346Z,96610.06
2024-02-29T10:53:26.566Z,96601.72
2024-02-29T10:54:34.144Z,96595.47
2024-02-29T10:55:40.626Z,96598.09
2024-02-29T10:56:45.960Z,96594.50
2024-02-29T10:57:58.359Z,96590.25
2024-02-29T10:59:08.805Z,96590.13
2024-02-29T11:00:13.132Z,96581.13
2024-02-29T11:01:15.134Z,96581.69
2024-02-29T11:02:17.329Z,96579.25
2024-02-29T11:03:20.078Z,96585.22
2024-02-29T11:04:22.018Z,96578.13
2024-02-29T11:05:24.514Z,96566.94
2024-02-29T11:06:27.872Z,96573.97
2024-02-29T11:07:30.140Z,96565.69
2024-02-29T11:08:32.977Z,96565.31
2024-02-29T11:09:35.145Z,96564.56
2024-02-29T11:10:37.309Z,96556.38
2024-02-29T11:11:39.895Z,96554.84
2024-02-29T11:12:43.943Z,96550.72
2024-02-29T11:13:45.779Z,96552.13
2024-02-29T11:14:50.919Z,96543.69
2024-02-29T11:15:56.281Z,96550.84
2024-02-29T11:16:58.059Z,96538.72
2024-02-29T11:18:00.722Z,96540.84
2024-02-29T11:19:05.552Z,96539.31
2024-02-29T11:20:10.927Z,96543.56
2024-02-29T11:21:13.847Z,96527.19
2024-02-29T11:22:16.853Z,96537.50
2024-02-29T11:23:21.267Z,96538.84
2024-02-29T11:24:23.974Z,96523.06
2024-02-29T11:25:30.338Z,96523.09
2024-02-29T11:26:34.280Z,96527.88
2024-02-29T11:27:36.044Z,96532.34
2024-02-29T11:28:38.618Z,96517.28
2024-02-29T11:29:43.716Z,96517.59
2024-02-29T11:30:49.978Z,96504.13
2024-02-29T11:31:55.147Z,96506.25
2024-02-29T11:33:07.811Z,96510.47
2024-02-29T11:34:09.634Z,96510.47
2024-02-29T11:35:12.785Z,96511.00
2024-02-29T11:36:14.892Z,96508.38
2024-02-29T11:37:17.448Z,96497.25
2024-02-29T11:38:28.876Z,96491.19
2024-02-29T11:39:34.642Z,96492.50
2024-02-29T11:40:36.966Z,96495.16
2024-02-29T11:41:39.635Z,96501.53
2024-02-29T11:42:41.504Z,96495.16
2024-02-29T11:43:44.732Z,96495.44
2024-02-29T11:44:50.432Z,96489.34
2024-02-29T11:45:52.173Z,96497.31
2024-02-29T11:46:54.055Z,96494.94
2024-02-29T11:47:55.908Z,96496.75
2024-02-29T11:48:58.064Z,96489.31
2024-02-29T11:50:01.299Z,96487.50
2024-02-29T11:51:04.683Z,96480.09
2024-02-29T11:52:06.622Z,96486.97
2024-02-29T11:53:08.498Z,96480.88
2024-02-29T11:54:11.233Z,96479.56
2024-02-29T11:55:13.567Z,96480.38
2024-02-29T11:56:16.929Z,96482.75
2024-02-29T11:57:20.101Z,96477.19
2024-02-29T11:58:22.305Z,96473.78
2024-02-29T11:59:27.785Z,96469.00
2024-02-29T12:00:29.677Z,96475.06
2024-02-29T12:01:31.558Z,96475.06
2024-02-29T12:02:33.480Z,96470.59
2024-02-29T12:03:36.403Z,96467.94
2024-02-29T12:04:38.465Z,96467.94
2024-02-29T12:05:40.391Z,96458.66
2024-02-29T12:06:42.633Z,96461.56
2024-02-29T12:07:44.518Z,96459.75
2024-02-29T12:08:46.905Z,96454.97
2024-02-29T12:09:48.812Z,96452.00
2024-02-29T12:10:50.831Z,96455.44
2024-02-29T12:11:52.834Z,96451.19
2024-02-29T12:12:54.940Z,96442.44
2024-02-29T12:13:57.747Z,96445.56
2024-02-29T12:15:00.128Z,96443.16